Time;durP1;ratioP1;P1;durP2;ratioP2;P2;SDS_P1;SDS_P2;PMS_P1;PMS_P2;Temp;Humidity;BMP_temperature;BMP_pressure;BME280_temperature;BME280_humidity;BME280_pressure;Samples;Min_cycle;Max_cycle;Signal;HPM_P1;HPM_P2
2023/08/29 00:00:29;;;;;;;3.30;3.00;;;;;;;;;;5011965;28;20378;-83
2023/08/29 00:02:54;;;;;;;3.13;2.83;;;;;;;;;;5003929;28;20102;-81
2023/08/29 00:05:19;;;;;;;3.55;2.75;;;;;;;;;;5001388;28;20046;-84
2023/08/29 00:07:45;;;;;;;3.47;3.13;;;;;;;;;;4998009;28;20117;-83
2023/08/29 00:10:11;;;;;;;4.80;3.70;;;;;;;;;;5003953;28;20041;-83
2023/08/29 00:12:36;;;;;;;6.70;3.13;;;;;;;;;;5005943;28;20065;-82
2023/08/29 00:15:05;;;;;;;3.67;3.38;;;;;;;;;;5006470;28;20038;-81
2023/08/29 00:17:31;;;;;;;3.90;3.50;;;;;;;;;;5000397;28;20100;-80
2023/08/29 00:19:56;;;;;;;3.75;3.35;;;;;;;;;;5001128;28;20042;-83
2023/08/29 00:22:21;;;;;;;3.45;3.15;;;;;;;;;;5001202;28;20601;-82
2023/08/29 00:24:48;;;;;;;4.00;3.42;;;;;;;;;;4996699;28;20053;-80
2023/08/29 00:27:14;;;;;;;5.38;3.85;;;;;;;;;;5015011;28;20124;-78
2023/08/29 00:29:41;;;;;;;4.05;3.20;;;;;;;;;;4999814;28;20041;-79
2023/08/29 00:32:06;;;;;;;4.10;3.42;;;;;;;;;;5001249;28;20067;-81
2023/08/29 00:34:32;;;;;;;6.45;4.32;;;;;;;;;;5003338;28;20034;-83
2023/08/29 00:36:57;;;;;;;5.32;4.28;;;;;;;;;;5003108;28;20077;-81
2023/08/29 00:39:23;;;;;;;9.82;5.15;;;;;;;;;;5003239;28;20085;-83
2023/08/29 00:41:49;;;;;;;7.32;5.40;;;;;;;;;;5000502;28;20018;-83
2023/08/29 00:44:15;;;;;;;7.72;5.05;;;;;;;;;;4995859;28;20031;-82
2023/08/29 00:46:42;;;;;;;8.80;5.43;;;;;;;;;;5000510;28;20038;-84
2023/08/29 00:49:08;;;;;;;14.60;5.38;;;;;;;;;;4998324;28;20034;-85
2023/08/29 00:51:34;;;;;;;7.07;4.93;;;;;;;;;;4996282;28;20127;-81
2023/08/29 00:54:00;;;;;;;7.65;6.22;;;;;;;;;;5020209;28;20036;-85
2023/08/29 00:56:26;;;;;;;10.15;6.80;;;;;;;;;;4994373;28;20034;-83
2023/08/29 00:58:52;;;;;;;7.38;5.13;;;;;;;;;;4992048;28;20038;-81
2023/08/29 01:01:18;;;;;;;8.10;6.10;;;;;;;;;;4990996;28;20428;-79
2023/08/29 01:03:43;;;;;;;8.48;6.30;;;;;;;;;;4991705;28;20056;-81
2023/08/29 01:06:10;;;;;;;11.55;7.20;;;;;;;;;;4996362;28;20026;-83
2023/08/29 01:08:35;;;;;;;8.57;6.47;;;;;;;;;;4995403;28;20038;-79
2023/08/29 01:11:25;;;;;;;9.93;6.85;;;;;;;;;;4995259;28;20041;-81
2023/08/29 01:14:11;;;;;;;9.27;6.50;;;;;;;;;;4997547;28;20064;-81
2023/08/29 01:16:52;;;;;;;6.28;5.28;;;;;;;;;;4998361;28;20110;-83
2023/08/29 01:19:21;;;;;;;8.55;6.57;;;;;;;;;;4994724;28;20042;-85
2023/08/29 01:22:03;;;;;;;10.20;6.55;;;;;;;;;;4997707;28;20046;-85
2023/08/29 01:24:46;;;;;;;9.38;7.25;;;;;;;;;;4994822;28;20083;-84
2023/08/29 01:27:12;;;;;;;9.52;6.75;;;;;;;;;;4991119;28;20026;-82
2023/08/29 01:29:38;;;;;;;8.52;6.50;;;;;;;;;;5001382;28;20026;-85
2023/08/29 01:32:05;;;;;;;7.30;5.95;;;;;;;;;;4998203;28;20094;-80
2023/08/29 01:34:31;;;;;;;11.77;7.53;;;;;;;;;;4992643;28;20060;-82
2023/08/29 01:36:56;;;;;;;9.98;6.00;;;;;;;;;;4997915;28;20034;-81
2023/08/29 01:39:22;;;;;;;7.43;5.70;;;;;;;;;;4997468;28;20042;-82
2023/08/29 01:41:47;;;;;;;6.18;5.22;;;;;;;;;;4992166;28;20038;-83
2023/08/29 01:44:12;;;;;;;11.43;5.93;;;;;;;;;;4990714;28;20038;-83
2023/08/29 01:46:38;;;;;;;6.90;5.70;;;;;;;;;;4994293;28;20031;-82
2023/08/29 01:49:04;;;;;;;6.28;5.20;;;;;;;;;;4991866;28;20073;-82
2023/08/29 01:51:29;;;;;;;8.90;6.63;;;;;;;;;;4992692;28;20038;-81
2023/08/29 01:53:56;;;;;;;7.55;5.55;;;;;;;;;;4998496;28;20088;-78
2023/08/29 01:56:25;;;;;;;11.38;6.40;;;;;;;;;;4996701;28;20068;-82
2023/08/29 01:58:53;;;;;;;9.70;6.32;;;;;;;;;;4994491;28;20034;-83
2023/08/29 02:01:18;;;;;;;9.57;6.68;;;;;;;;;;4998302;28;20050;-80
2023/08/29 02:03:44;;;;;;;9.57;6.95;;;;;;;;;;4995343;28;20042;-82
2023/08/29 02:06:09;;;;;;;9.60;7.22;;;;;;;;;;4998288;28;20060;-81
2023/08/29 02:08:36;;;;;;;8.82;6.70;;;;;;;;;;5001023;28;20117;-82
2023/08/29 02:11:01;;;;;;;12.32;8.02;;;;;;;;;;4993672;28;20034;-81
2023/08/29 02:13:26;;;;;;;12.90;8.57;;;;;;;;;;5004319;28;20061;-82
2023/08/29 02:15:51;;;;;;;18.13;10.63;;;;;;;;;;4994406;28;20052;-83
2023/08/29 02:18:17;;;;;;;15.93;9.27;;;;;;;;;;4995546;28;20022;-81
2023/08/29 02:20:42;;;;;;;15.80;10.07;;;;;;;;;;4991929;28;20025;-83
2023/08/29 02:23:08;;;;;;;23.27;11.93;;;;;;;;;;5006688;28;20042;-84
2023/08/29 02:25:34;;;;;;;20.45;12.15;;;;;;;;;;4998718;28;20534;-85
2023/08/29 02:28:25;;;;;;;16.40;11.15;;;;;;;;;;4997693;28;20058;-83
2023/08/29 02:30:50;;;;;;;19.23;11.52;;;;;;;;;;5001776;28;20038;-85
2023/08/29 02:33:16;;;;;;;22.70;13.13;;;;;;;;;;5008527;28;20017;-85
2023/08/29 02:35:41;;;;;;;29.52;13.38;;;;;;;;;;5004956;28;20025;-84
2023/08/29 02:38:06;;;;;;;22.58;13.65;;;;;;;;;;5004426;28;20046;-81
2023/08/29 02:40:32;;;;;;;24.77;13.80;;;;;;;;;;5000610;28;20045;-82
2023/08/29 02:42:57;;;;;;;20.15;12.27;;;;;;;;;;5006126;28;20104;-83
2023/08/29 02:45:23;;;;;;;27.85;14.25;;;;;;;;;;5040976;28;20089;-80
2023/08/29 02:47:48;;;;;;;22.52;13.20;;;;;;;;;;5005445;28;20027;-81
2023/08/29 02:50:13;;;;;;;24.45;13.55;;;;;;;;;;5024149;28;20030;-83
2023/08/29 02:52:39;;;;;;;23.15;13.65;;;;;;;;;;4994240;28;20040;-83
2023/08/29 02:55:05;;;;;;;21.05;12.93;;;;;;;;;;4997049;28;20045;-82
2023/08/29 02:57:31;;;;;;;27.23;13.48;;;;;;;;;;5005574;28;20540;-81
2023/08/29 02:59:57;;;;;;;23.13;12.55;;;;;;;;;;4992826;28;20101;-83
2023/08/29 03:02:23;;;;;;;20.80;12.63;;;;;;;;;;4996171;28;20452;-82
2023/08/29 03:04:48;;;;;;;21.40;12.27;;;;;;;;;;5004322;28;20033;-84
2023/08/29 03:07:13;;;;;;;16.92;10.70;;;;;;;;;;4999771;28;20041;-83
2023/08/29 03:09:38;;;;;;;16.55;10.00;;;;;;;;;;4999857;28;20078;-84
2023/08/29 03:12:04;;;;;;;15.10;9.95;;;;;;;;;;5001296;28;20447;-81
2023/08/29 03:14:29;;;;;;;19.40;10.55;;;;;;;;;;5004426;28;20049;-81
2023/08/29 03:16:54;;;;;;;17.42;10.50;;;;;;;;;;4998301;28;20154;-82
2023/08/29 03:19:20;;;;;;;17.45;9.90;;;;;;;;;;5001649;28;20035;-81
2023/08/29 03:21:45;;;;;;;17.65;9.82;;;;;;;;;;4998894;28;20048;-82
2023/08/29 03:24:10;;;;;;;12.35;8.75;;;;;;;;;;4996652;28;20097;-81
2023/08/29 03:26:36;;;;;;;15.43;8.95;;;;;;;;;;5003750;28;20024;-80
2023/08/29 03:29:02;;;;;;;17.90;9.95;;;;;;;;;;5007297;28;20031;-83
2023/08/29 03:31:27;;;;;;;16.02;9.30;;;;;;;;;;5008450;28;20094;-81
2023/08/29 03:33:53;;;;;;;14.18;8.98;;;;;;;;;;4999180;28;20114;-80
2023/08/29 03:36:19;;;;;;;18.13;9.68;;;;;;;;;;5006667;28;20018;-81
2023/08/29 03:38:45;;;;;;;17.02;9.07;;;;;;;;;;4998870;28;20387;-82
2023/08/29 03:41:10;;;;;;;17.05;8.25;;;;;;;;;;4992923;28;20038;-82
2023/08/29 03:43:36;;;;;;;15.48;9.52;;;;;;;;;;4994063;28;20049;-82
2023/08/29 03:46:06;;;;;;;13.20;8.30;;;;;;;;;;5003778;28;20046;-81
2023/08/29 03:48:33;;;;;;;13.57;8.50;;;;;;;;;;5000651;28;20117;-79
2023/08/29 03:51:00;;;;;;;14.32;9.50;;;;;;;;;;4995740;28;20034;-80
2023/08/29 03:53:25;;;;;;;12.25;8.52;;;;;;;;;;5002022;28;20034;-82
2023/08/29 03:55:51;;;;;;;16.83;9.63;;;;;;;;;;5000901;28;20522;-81
2023/08/29 03:58:16;;;;;;;12.38;8.93;;;;;;;;;;5004688;28;20072;-82
2023/08/29 04:00:42;;;;;;;12.60;8.77;;;;;;;;;;5001448;28;20038;-81
2023/08/29 04:03:07;;;;;;;13.63;10.18;;;;;;;;;;5000764;28;20079;-81
2023/08/29 04:05:35;;;;;;;14.52;9.45;;;;;;;;;;5000334;28;20022;-82
2023/08/29 04:08:01;;;;;;;11.25;8.48;;;;;;;;;;5036504;23;20487;-76
2023/08/29 04:10:27;;;;;;;20.17;10.32;;;;;;;;;;5041830;28;20070;-76
2023/08/29 04:12:52;;;;;;;15.00;9.18;;;;;;;;;;5078158;28;20043;-77
2023/08/29 04:15:17;;;;;;;13.75;9.98;;;;;;;;;;5087403;28;20027;-76
2023/08/29 04:17:43;;;;;;;14.55;9.80;;;;;;;;;;5002057;28;20119;-76
2023/08/29 04:20:09;;;;;;;12.70;8.77;;;;;;;;;;4993408;28;20047;-77
2023/08/29 04:22:35;;;;;;;12.13;8.77;;;;;;;;;;4974275;28;20084;-77
2023/08/29 04:25:07;;;;;;;13.52;8.98;;;;;;;;;;4976104;28;20710;-77
2023/08/29 04:27:33;;;;;;;16.27;11.02;;;;;;;;;;5033405;28;20030;-78
2023/08/29 04:29:59;;;;;;;13.35;9.95;;;;;;;;;;5068806;28;20024;-76
2023/08/29 04:32:24;;;;;;;13.88;8.20;;;;;;;;;;5023410;28;20044;-77
2023/08/29 04:34:50;;;;;;;13.50;9.55;;;;;;;;;;5063427;28;20103;-77
2023/08/29 04:37:16;;;;;;;12.88;8.75;;;;;;;;;;5043088;28;20028;-76
2023/08/29 04:39:41;;;;;;;11.35;8.77;;;;;;;;;;5070274;28;20235;-77
2023/08/29 04:42:06;;;;;;;12.10;8.48;;;;;;;;;;5058315;28;20072;-77
2023/08/29 04:44:33;;;;;;;12.88;8.82;;;;;;;;;;5013308;28;20038;-78
2023/08/29 04:46:59;;;;;;;13.82;8.23;;;;;;;;;;5034172;28;20026;-77
2023/08/29 04:49:27;;;;;;;12.13;9.15;;;;;;;;;;5073909;28;20081;-77
2023/08/29 04:51:53;;;;;;;12.88;9.55;;;;;;;;;;5048472;28;20108;-77
2023/08/29 04:54:18;;;;;;;12.38;8.07;;;;;;;;;;5015898;28;20304;-77
2023/08/29 04:56:43;;;;;;;13.60;9.15;;;;;;;;;;5065825;28;20074;-79
2023/08/29 04:59:09;;;;;;;10.40;8.05;;;;;;;;;;5003229;28;20484;-77
2023/08/29 05:01:34;;;;;;;13.55;8.73;;;;;;;;;;5056252;28;20042;-77
2023/08/29 05:03:59;;;;;;;11.75;8.48;;;;;;;;;;5072147;28;20044;-79
2023/08/29 05:06:25;;;;;;;12.00;8.50;;;;;;;;;;5002690;28;20464;-80
2023/08/29 05:08:50;;;;;;;14.85;8.73;;;;;;;;;;4975472;28;20022;-79
2023/08/29 05:11:16;;;;;;;11.48;7.85;;;;;;;;;;4972757;28;20412;-77
2023/08/29 05:13:41;;;;;;;11.63;8.48;;;;;;;;;;4991088;28;20046;-79
2023/08/29 05:16:06;;;;;;;10.65;8.32;;;;;;;;;;4976738;28;20109;-79
2023/08/29 05:18:32;;;;;;;13.65;9.10;;;;;;;;;;4973050;28;20033;-78
2023/08/29 05:20:57;;;;;;;10.20;8.13;;;;;;;;;;4993589;28;20399;-79
2023/08/29 05:23:22;;;;;;;13.38;9.57;;;;;;;;;;4974772;28;20072;-79
2023/08/29 05:25:48;;;;;;;14.02;9.18;;;;;;;;;;4989606;28;20045;-79
2023/08/29 05:28:13;;;;;;;17.05;8.20;;;;;;;;;;4973457;28;20129;-79
2023/08/29 05:30:38;;;;;;;11.40;8.13;;;;;;;;;;4974130;28;20062;-79
2023/08/29 05:33:04;;;;;;;12.63;9.15;;;;;;;;;;4991626;28;20030;-79
2023/08/29 05:35:30;;;;;;;15.25;9.45;;;;;;;;;;5033337;28;20124;-79
2023/08/29 05:37:55;;;;;;;13.18;7.90;;;;;;;;;;5044546;28;20047;-78
2023/08/29 05:40:21;;;;;;;14.13;8.88;;;;;;;;;;5060401;28;20059;-78
2023/08/29 05:42:46;;;;;;;11.63;8.07;;;;;;;;;;5059003;28;20108;-79
2023/08/29 05:45:11;;;;;;;10.45;8.23;;;;;;;;;;5048407;28;20022;-79
2023/08/29 05:47:37;;;;;;;8.57;6.82;;;;;;;;;;5065517;28;20082;-78
2023/08/29 05:50:02;;;;;;;9.40;6.88;;;;;;;;;;5002851;28;20031;-77
2023/08/29 05:52:28;;;;;;;9.65;7.38;;;;;;;;;;5048730;28;20654;-77
2023/08/29 05:54:53;;;;;;;9.20;6.95;;;;;;;;;;5049508;28;20041;-77
2023/08/29 05:57:19;;;;;;;8.50;6.80;;;;;;;;;;4980866;28;20102;-77
2023/08/29 05:59:44;;;;;;;8.30;6.30;;;;;;;;;;4986553;28;20113;-77
2023/08/29 06:02:09;;;;;;;12.00;7.28;;;;;;;;;;4978762;28;20091;-78
2023/08/29 06:04:34;;;;;;;10.10;6.53;;;;;;;;;;4989290;28;20076;-77
2023/08/29 06:07:00;;;;;;;8.93;6.13;;;;;;;;;;5052336;28;20036;-77
2023/08/29 06:09:26;;;;;;;6.38;5.72;;;;;;;;;;5021594;28;20036;-77
2023/08/29 06:11:51;;;;;;;7.13;6.25;;;;;;;;;;5053970;28;20023;-77
2023/08/29 06:14:17;;;;;;;8.55;5.93;;;;;;;;;;5024787;28;20490;-78
2023/08/29 06:16:42;;;;;;;8.63;6.45;;;;;;;;;;5018031;28;20037;-77
2023/08/29 06:19:07;;;;;;;7.93;6.47;;;;;;;;;;5034720;28;20067;-78
2023/08/29 06:21:33;;;;;;;6.32;4.75;;;;;;;;;;5020463;28;20133;-78
2023/08/29 06:23:58;;;;;;;6.50;4.97;;;;;;;;;;5005892;28;20031;-77
2023/08/29 06:26:23;;;;;;;5.78;4.85;;;;;;;;;;5009065;28;20041;-78
2023/08/29 06:28:48;;;;;;;5.63;4.80;;;;;;;;;;4993725;28;20068;-77
2023/08/29 06:31:14;;;;;;;5.30;4.80;;;;;;;;;;4981494;28;20401;-78
2023/08/29 06:33:39;;;;;;;6.05;4.20;;;;;;;;;;4974330;28;20041;-78
2023/08/29 06:36:05;;;;;;;7.25;4.15;;;;;;;;;;4999397;28;20024;-78
2023/08/29 06:38:31;;;;;;;6.32;4.65;;;;;;;;;;5050741;28;20102;-78
2023/08/29 06:40:57;;;;;;;5.03;4.03;;;;;;;;;;5009778;28;20591;-78
2023/08/29 06:43:23;;;;;;;4.93;4.43;;;;;;;;;;5022840;28;20061;-77
2023/08/29 06:45:49;;;;;;;7.82;4.45;;;;;;;;;;5015684;28;20078;-77
2023/08/29 06:48:14;;;;;;;4.03;3.67;;;;;;;;;;4987021;28;20407;-78
2023/08/29 06:50:39;;;;;;;3.85;3.55;;;;;;;;;;4972406;28;20116;-78
2023/08/29 06:53:05;;;;;;;5.32;3.85;;;;;;;;;;4990088;28;20032;-78
2023/08/29 06:55:32;;;;;;;5.50;3.80;;;;;;;;;;4996729;28;20034;-78
2023/08/29 06:57:58;;;;;;;4.72;4.15;;;;;;;;;;5020941;28;20039;-78
2023/08/29 07:00:23;;;;;;;6.18;3.58;;;;;;;;;;5042659;28;20728;-78
2023/08/29 07:02:50;;;;;;;6.60;3.97;;;;;;;;;;5045841;28;20044;-78
2023/08/29 07:05:16;;;;;;;6.75;4.07;;;;;;;;;;5020318;28;20046;-78
2023/08/29 07:07:41;;;;;;;5.40;4.18;;;;;;;;;;5057775;28;20410;-78
2023/08/29 07:10:07;;;;;;;4.15;3.75;;;;;;;;;;5021594;28;20033;-78
2023/08/29 07:12:32;;;;;;;3.90;3.55;;;;;;;;;;5021020;28;20488;-78
2023/08/29 07:14:58;;;;;;;5.32;4.40;;;;;;;;;;5001699;28;20033;-77
2023/08/29 07:17:24;;;;;;;4.03;3.65;;;;;;;;;;4986496;28;20066;-78
2023/08/29 07:19:49;;;;;;;4.60;3.83;;;;;;;;;;4969940;28;20061;-78
2023/08/29 07:22:14;;;;;;;4.15;3.70;;;;;;;;;;4970994;28;20129;-78
2023/08/29 07:24:39;;;;;;;5.75;3.95;;;;;;;;;;4992609;28;20044;-77
2023/08/29 07:27:06;;;;;;;3.63;3.33;;;;;;;;;;5003412;28;21415;-77
2023/08/29 07:29:31;;;;;;;4.18;3.78;;;;;;;;;;5018235;28;20026;-78
2023/08/29 07:31:57;;;;;;;5.20;3.95;;;;;;;;;;5026815;28;20122;-77
2023/08/29 07:34:23;;;;;;;6.05;3.35;;;;;;;;;;5023218;28;20042;-78
2023/08/29 07:36:48;;;;;;;3.30;3.00;;;;;;;;;;5054394;28;20119;-78
2023/08/29 07:39:16;;;;;;;3.13;2.88;;;;;;;;;;5047797;28;20554;-78
2023/08/29 07:41:41;;;;;;;4.15;3.28;;;;;;;;;;5041061;28;20479;-78
2023/08/29 07:44:07;;;;;;;2.45;2.25;;;;;;;;;;5023024;28;20071;-78
2023/08/29 07:46:32;;;;;;;2.72;2.53;;;;;;;;;;5029594;28;20072;-78
2023/08/29 07:48:57;;;;;;;2.20;2.10;;;;;;;;;;5016134;28;20048;-78
2023/08/29 07:51:23;;;;;;;1.88;1.77;;;;;;;;;;5052380;28;20049;-78
2023/08/29 07:53:48;;;;;;;2.25;2.15;;;;;;;;;;5048434;28;20024;-78
2023/08/29 07:56:13;;;;;;;2.60;2.40;;;;;;;;;;5018173;28;20042;-78
2023/08/29 07:58:39;;;;;;;3.78;2.45;;;;;;;;;;4968442;28;20092;-78
2023/08/29 08:01:04;;;;;;;2.78;2.58;;;;;;;;;;4987944;28;20050;-78
2023/08/29 08:03:29;;;;;;;2.63;2.42;;;;;;;;;;4972507;28;20507;-78
2023/08/29 08:05:55;;;;;;;5.35;2.38;;;;;;;;;;5010441;28;20067;-78
2023/08/29 08:08:20;;;;;;;2.58;2.42;;;;;;;;;;5035925;28;20042;-78
2023/08/29 08:10:46;;;;;;;4.75;2.20;;;;;;;;;;5034570;28;20105;-78
2023/08/29 08:13:11;;;;;;;2.30;2.15;;;;;;;;;;5017092;28;20312;-78
2023/08/29 08:15:36;;;;;;;1.98;1.88;;;;;;;;;;5045772;28;20036;-78
2023/08/29 08:18:03;;;;;;;4.32;2.10;;;;;;;;;;5038525;28;20020;-78
2023/08/29 08:20:28;;;;;;;2.13;1.92;;;;;;;;;;5060840;28;20110;-77
2023/08/29 08:22:54;;;;;;;1.77;1.67;;;;;;;;;;5048820;28;20044;-77
2023/08/29 08:25:19;;;;;;;2.22;2.13;;;;;;;;;;5019751;28;20518;-77
2023/08/29 08:27:44;;;;;;;2.08;1.88;;;;;;;;;;5038461;28;20041;-77
2023/08/29 08:30:10;;;;;;;2.78;2.10;;;;;;;;;;5029108;28;20470;-78
2023/08/29 08:32:36;;;;;;;2.33;2.13;;;;;;;;;;5045572;28;20036;-78
2023/08/29 08:35:04;;;;;;;2.10;2.00;;;;;;;;;;5032883;28;20985;-78
2023/08/29 08:37:31;;;;;;;3.40;1.77;;;;;;;;;;5070171;28;20065;-78
2023/08/29 08:40:01;;;;;;;2.10;2.00;;;;;;;;;;5010946;28;20044;-78
2023/08/29 08:42:28;;;;;;;1.98;1.80;;;;;;;;;;5041958;28;20037;-77
2023/08/29 08:44:54;;;;;;;2.28;2.17;;;;;;;;;;5025689;28;20037;-77
2023/08/29 08:47:20;;;;;;;1.80;1.70;;;;;;;;;;5018422;28;20034;-76
2023/08/29 08:49:45;;;;;;;1.85;1.75;;;;;;;;;;5016947;28;20510;-77
2023/08/29 08:52:11;;;;;;;1.95;1.85;;;;;;;;;;5020332;28;20044;-78
2023/08/29 08:54:38;;;;;;;1.63;1.52;;;;;;;;;;5045081;28;20067;-78
2023/08/29 08:57:04;;;;;;;2.03;1.83;;;;;;;;;;5028036;28;20711;-77
2023/08/29 08:59:29;;;;;;;2.30;2.10;;;;;;;;;;5009397;28;20048;-78
2023/08/29 09:01:56;;;;;;;1.95;1.85;;;;;;;;;;5040252;28;20545;-78
2023/08/29 09:04:22;;;;;;;1.80;1.70;;;;;;;;;;4997533;28;20412;-78
2023/08/29 09:06:48;;;;;;;2.78;2.58;;;;;;;;;;5037980;28;20054;-77
2023/08/29 09:09:23;;;;;;;1.80;1.70;;;;;;;;;;5023165;28;20059;-77
2023/08/29 09:11:54;;;;;;;1.80;1.70;;;;;;;;;;5008630;28;20107;-77
2023/08/29 09:14:19;;;;;;;1.65;1.55;;;;;;;;;;5036796;28;20028;-78
2023/08/29 09:16:45;;;;;;;1.60;1.50;;;;;;;;;;5048880;28;20071;-76
2023/08/29 09:19:11;;;;;;;1.65;1.55;;;;;;;;;;5045863;28;20032;-77
2023/08/29 09:21:41;;;;;;;1.23;1.23;;;;;;;;;;5058134;28;20073;-77
2023/08/29 09:24:10;;;;;;;1.45;1.35;;;;;;;;;;5056366;28;20351;-77
2023/08/29 09:26:36;;;;;;;1.20;1.20;;;;;;;;;;5031339;28;20024;-77
2023/08/29 09:29:15;;;;;;;1.50;1.40;;;;;;;;;;5068575;28;20089;-77
2023/08/29 09:31:41;;;;;;;1.30;1.20;;;;;;;;;;5036755;28;20032;-77
2023/08/29 09:34:07;;;;;;;1.48;1.38;;;;;;;;;;5044819;28;20070;-78
2023/08/29 09:36:33;;;;;;;1.73;1.52;;;;;;;;;;5043890;28;20164;-77
2023/08/29 09:38:58;;;;;;;1.20;1.20;;;;;;;;;;5021513;28;20034;-78
2023/08/29 09:41:23;;;;;;;1.17;1.17;;;;;;;;;;5048805;28;20074;-78
2023/08/29 09:43:49;;;;;;;1.40;1.40;;;;;;;;;;5035660;28;20040;-78
2023/08/29 09:46:21;;;;;;;1.27;1.23;;;;;;;;;;5031019;28;20032;-78
2023/08/29 09:48:56;;;;;;;1.25;1.17;;;;;;;;;;5032816;28;20078;-77
2023/08/29 09:51:28;;;;;;;1.92;1.50;;;;;;;;;;4997326;28;20044;-77
2023/08/29 09:53:56;;;;;;;1.40;1.30;;;;;;;;;;5034728;28;20019;-78
2023/08/29 09:56:24;;;;;;;1.50;1.40;;;;;;;;;;5048856;28;20036;-77
2023/08/29 09:58:50;;;;;;;1.48;1.38;;;;;;;;;;5038259;28;20046;-77
2023/08/29 10:01:16;;;;;;;1.20;1.10;;;;;;;;;;5018917;28;20040;-77
2023/08/29 10:03:42;;;;;;;1.30;1.20;;;;;;;;;;5057922;28;20032;-77
2023/08/29 10:06:11;;;;;;;1.27;1.17;;;;;;;;;;5041471;28;20146;-77
2023/08/29 10:11:06;;;;;;;1.42;1.33;;;;;;;;;;5023011;28;20106;-81
2023/08/29 10:13:34;;;;;;;0.98;0.93;;;;;;;;;;5025871;28;20075;-80
2023/08/29 10:16:01;;;;;;;1.40;1.30;;;;;;;;;;5021173;28;20038;-79
2023/08/29 10:18:27;;;;;;;1.00;1.00;;;;;;;;;;5039438;28;20055;-82
2023/08/29 10:20:54;;;;;;;1.20;1.20;;;;;;;;;;5017192;28;20108;-82
2023/08/29 10:23:19;;;;;;;1.30;1.20;;;;;;;;;;5044504;28;20040;-82
2023/08/29 10:25:46;;;;;;;1.58;1.48;;;;;;;;;;5025201;28;20132;-81
2023/08/29 10:28:18;;;;;;;1.40;1.30;;;;;;;;;;5022388;28;20063;-83
2023/08/29 10:30:47;;;;;;;1.20;1.10;;;;;;;;;;5006801;28;20041;-83
2023/08/29 10:33:13;;;;;;;1.05;1.05;;;;;;;;;;5026722;28;20055;-81
2023/08/29 10:35:39;;;;;;;1.15;1.15;;;;;;;;;;5019750;28;20025;-79
2023/08/29 10:38:14;;;;;;;1.08;1.08;;;;;;;;;;5028216;28;20038;-83
2023/08/29 10:40:39;;;;;;;1.17;1.10;;;;;;;;;;5027579;28;20436;-81
2023/08/29 10:43:16;;;;;;;1.17;1.17;;;;;;;;;;5033821;28;20029;-82
2023/08/29 10:45:49;;;;;;;2.50;1.40;;;;;;;;;;5036757;28;20045;-81
2023/08/29 10:48:21;;;;;;;1.85;1.00;;;;;;;;;;5013358;28;20064;-82
2023/08/29 10:51:08;;;;;;;0.70;0.70;;;;;;;;;;5036446;28;20067;-83
2023/08/29 10:53:49;;;;;;;1.58;1.05;;;;;;;;;;5024803;28;20038;-79
2023/08/29 10:56:17;;;;;;;0.70;0.70;;;;;;;;;;5034648;28;20496;-81
2023/08/29 10:58:44;;;;;;;0.70;0.70;;;;;;;;;;5009944;28;20061;-83
2023/08/29 11:01:28;;;;;;;0.60;0.60;;;;;;;;;;5004564;28;20033;-83
2023/08/29 11:04:14;;;;;;;0.60;0.60;;;;;;;;;;4998763;28;20143;-83
2023/08/29 11:06:53;;;;;;;0.77;0.77;;;;;;;;;;5035733;28;20062;-83
2023/08/29 11:09:20;;;;;;;0.68;0.68;;;;;;;;;;5018321;28;20030;-83
2023/08/29 11:12:05;;;;;;;1.85;0.68;;;;;;;;;;5020863;28;20048;-83
2023/08/29 11:14:51;;;;;;;1.13;0.60;;;;;;;;;;5019951;28;20049;-81
2023/08/29 11:17:23;;;;;;;0.60;0.60;;;;;;;;;;5015562;28;20021;-81
2023/08/29 11:19:53;;;;;;;1.00;0.50;;;;;;;;;;5046752;28;20039;-83
2023/08/29 11:22:25;;;;;;;0.75;0.75;;;;;;;;;;5010568;28;20045;-82
2023/08/29 11:24:54;;;;;;;0.85;0.60;;;;;;;;;;5019839;28;20033;-82
2023/08/29 11:27:28;;;;;;;0.80;0.80;;;;;;;;;;5002078;28;20035;-81
2023/08/29 11:29:53;;;;;;;;;;;;;;;;;;5037582;28;20071;-78
2023/08/29 11:32:19;;;;;;;0.80;0.80;;;;;;;;;;5033848;28;19917;-81
2023/08/29 11:34:50;;;;;;;0.93;0.93;;;;;;;;;;5045995;28;20109;-79
2023/08/29 11:37:15;;;;;;;1.00;1.00;;;;;;;;;;5015715;28;20443;-82
2023/08/29 11:39:51;;;;;;;0.90;0.90;;;;;;;;;;5019938;28;20041;-83
2023/08/29 11:42:20;;;;;;;1.00;1.00;;;;;;;;;;5016558;28;20018;-83
2023/08/29 11:44:45;;;;;;;0.85;0.85;;;;;;;;;;5048725;28;20255;-79
2023/08/29 11:47:15;;;;;;;1.00;0.88;;;;;;;;;;5019392;28;20031;-80
2023/08/29 11:49:41;;;;;;;1.10;1.00;;;;;;;;;;5034634;28;20026;-82
2023/08/29 11:52:07;;;;;;;1.17;1.17;;;;;;;;;;5014840;28;20144;-80
2023/08/29 11:54:46;;;;;;;0.90;0.90;;;;;;;;;;5023771;28;20053;-83
2023/08/29 11:57:13;;;;;;;0.80;0.80;;;;;;;;;;5019261;28;20025;-82
2023/08/29 11:59:40;;;;;;;0.95;0.70;;;;;;;;;;5023156;28;20124;-83
2023/08/29 12:02:06;;;;;;;0.80;0.80;;;;;;;;;;5031628;28;20034;-83
2023/08/29 12:04:32;;;;;;;1.08;1.00;;;;;;;;;;5021760;28;20034;-82
2023/08/29 12:07:08;;;;;;;0.75;0.75;;;;;;;;;;5014371;28;20395;-81
2023/08/29 12:09:34;;;;;;;0.90;0.90;;;;;;;;;;5019645;28;20080;-81
2023/08/29 12:11:59;;;;;;;0.90;0.90;;;;;;;;;;5007255;28;20053;-83
2023/08/29 12:14:24;;;;;;;0.80;0.80;;;;;;;;;;5024719;28;20121;-83
2023/08/29 12:16:58;;;;;;;0.57;0.57;;;;;;;;;;5014340;28;20030;-82
2023/08/29 12:19:23;;;;;;;0.80;0.80;;;;;;;;;;5005293;28;20438;-84
2023/08/29 12:21:54;;;;;;;1.75;1.00;;;;;;;;;;5000409;28;20089;-83
2023/08/29 12:24:20;;;;;;;1.20;1.08;;;;;;;;;;5017002;28;20037;-81
2023/08/29 12:26:45;;;;;;;0.70;0.70;;;;;;;;;;5025967;28;20547;-81
2023/08/29 12:29:10;;;;;;;2.58;1.20;;;;;;;;;;5021526;28;20050;-81
2023/08/29 12:31:36;;;;;;;1.30;1.10;;;;;;;;;;5020150;28;20396;-83
2023/08/29 12:34:01;;;;;;;1.10;1.10;;;;;;;;;;5021337;28;20090;-82
2023/08/29 12:36:27;;;;;;;0.90;0.90;;;;;;;;;;5020991;28;20038;-82
2023/08/29 12:38:52;;;;;;;1.10;1.10;;;;;;;;;;5016898;28;20299;-82
2023/08/29 12:41:17;;;;;;;0.77;0.77;;;;;;;;;;5011405;28;20133;-83
2023/08/29 12:43:43;;;;;;;1.23;1.13;;;;;;;;;;5015991;28;20050;-83
2023/08/29 12:46:09;;;;;;;1.13;1.13;;;;;;;;;;5022755;28;20033;-82
2023/08/29 12:48:35;;;;;;;1.30;1.30;;;;;;;;;;5014541;28;20033;-81
2023/08/29 12:51:00;;;;;;;1.00;1.00;;;;;;;;;;5018985;28;20073;-83
2023/08/29 12:53:25;;;;;;;1.00;1.00;;;;;;;;;;5027924;28;20044;-83
2023/08/29 12:55:52;;;;;;;0.98;0.90;;;;;;;;;;5017284;28;20053;-82
2023/08/29 12:58:17;;;;;;;1.08;1.08;;;;;;;;;;5037421;28;20093;-80
2023/08/29 13:00:43;;;;;;;0.95;0.95;;;;;;;;;;5037218;28;20161;-83
2023/08/29 13:03:09;;;;;;;0.95;0.95;;;;;;;;;;5009183;28;20032;-82
2023/08/29 13:05:34;;;;;;;1.08;1.08;;;;;;;;;;5015900;28;20046;-81
2023/08/29 13:08:00;;;;;;;0.80;0.80;;;;;;;;;;5004853;28;20677;-81
2023/08/29 13:10:25;;;;;;;1.00;1.00;;;;;;;;;;5021499;28;20507;-83
2023/08/29 13:12:51;;;;;;;1.00;1.00;;;;;;;;;;5022990;28;20110;-79
2023/08/29 13:15:18;;;;;;;0.85;0.85;;;;;;;;;;5016778;28;20151;-83
2023/08/29 13:17:45;;;;;;;1.00;1.00;;;;;;;;;;5002215;28;20394;-82
2023/08/29 13:20:12;;;;;;;1.00;1.00;;;;;;;;;;5007617;28;20037;-83
2023/08/29 13:22:37;;;;;;;0.80;0.80;;;;;;;;;;5019415;28;20061;-82
2023/08/29 13:25:07;;;;;;;0.90;0.90;;;;;;;;;;5054790;28;20023;-79
2023/08/29 13:27:33;;;;;;;1.00;0.90;;;;;;;;;;5029649;28;20060;-81
2023/08/29 13:29:58;;;;;;;0.90;0.90;;;;;;;;;;5038860;28;20008;-82
2023/08/29 13:32:23;;;;;;;0.70;0.70;;;;;;;;;;5063502;28;20030;-82
2023/08/29 13:34:49;;;;;;;1.02;0.93;;;;;;;;;;5034177;28;20045;-82
2023/08/29 13:37:14;;;;;;;0.60;0.60;;;;;;;;;;5035043;28;20119;-81
2023/08/29 13:39:43;;;;;;;5.97;1.00;;;;;;;;;;5026083;28;20042;-82
2023/08/29 13:42:09;;;;;;;0.90;0.90;;;;;;;;;;5014768;28;20022;-82
2023/08/29 13:44:34;;;;;;;0.90;0.90;;;;;;;;;;5024232;28;20476;-82
2023/08/29 13:46:59;;;;;;;2.80;1.10;;;;;;;;;;5055899;28;20030;-82
2023/08/29 13:49:25;;;;;;;1.23;1.20;;;;;;;;;;5009362;28;20463;-80
2023/08/29 13:51:50;;;;;;;1.38;1.25;;;;;;;;;;5019793;28;20375;-81
2023/08/29 13:54:15;;;;;;;1.20;1.20;;;;;;;;;;5012592;28;20018;-81
2023/08/29 13:56:43;;;;;;;1.50;1.40;;;;;;;;;;5047565;28;20032;-81
2023/08/29 13:59:09;;;;;;;1.45;1.35;;;;;;;;;;5047971;28;20037;-79
2023/08/29 14:01:34;;;;;;;1.30;1.20;;;;;;;;;;5028673;28;20133;-82
2023/08/29 14:04:00;;;;;;;1.67;1.58;;;;;;;;;;5012883;28;20053;-82
2023/08/29 14:06:25;;;;;;;2.30;1.80;;;;;;;;;;5014353;28;20026;-80
2023/08/29 14:08:51;;;;;;;3.80;3.30;;;;;;;;;;5013012;28;20498;-82
2023/08/29 14:11:17;;;;;;;2.83;2.60;;;;;;;;;;5032914;28;20026;-82
2023/08/29 14:13:43;;;;;;;1.80;1.70;;;;;;;;;;5020436;28;20057;-80
2023/08/29 14:16:08;;;;;;;1.45;1.40;;;;;;;;;;5024221;28;20090;-82
2023/08/29 14:18:34;;;;;;;1.23;1.23;;;;;;;;;;5006093;28;20038;-82
2023/08/29 14:21:00;;;;;;;2.10;2.00;;;;;;;;;;5006585;28;20045;-80
2023/08/29 14:23:25;;;;;;;2.97;2.72;;;;;;;;;;5047589;28;20111;-81
2023/08/29 14:25:51;;;;;;;3.30;3.00;;;;;;;;;;5115612;28;20027;-81
2023/08/29 14:28:16;;;;;;;4.93;4.47;;;;;;;;;;5020803;28;20433;-81
2023/08/29 14:30:43;;;;;;;1.90;1.80;;;;;;;;;;5034120;28;20030;-81
2023/08/29 14:33:10;;;;;;;1.80;1.70;;;;;;;;;;5034180;28;20025;-82
2023/08/29 14:35:35;;;;;;;1.60;1.50;;;;;;;;;;5027253;28;20475;-82
2023/08/29 14:38:01;;;;;;;1.30;1.30;;;;;;;;;;5033284;28;20034;-81